Map

Track Data

SID SEASON NUMBER BASIN SUBBASIN NAME ISO_TIME NATURE LAT LON WMO_WIND WMO_PRES WMO_AGENCY TRACK_TYPE DIST2LAND LANDFALL IFLAG USA_AGENCY USA_ATCF_ID USA_LAT USA_LON USA_RECORD USA_STATUS USA_WIND USA_PRES USA_SSHS USA_R34_NE USA_R34_SE USA_R34_SW USA_R34_NW USA_R50_NE USA_R50_SE USA_R50_SW USA_R50_NW USA_R64_NE USA_R64_SE USA_R64_SW USA_R64_NW USA_POCI USA_ROCI USA_RMW USA_EYE TOKYO_LAT TOKYO_LON TOKYO_GRADE TOKYO_WIND TOKYO_PRES TOKYO_R50_DIR TOKYO_R50_LONG TOKYO_R50_SHORT TOKYO_R30_DIR TOKYO_R30_LONG TOKYO_R30_SHORT TOKYO_LAND CMA_LAT CMA_LON CMA_CAT CMA_WIND CMA_PRES HKO_LAT HKO_LON HKO_CAT HKO_WIND HKO_PRES NEWDELHI_LAT NEWDELHI_LON NEWDELHI_GRADE NEWDELHI_WIND NEWDELHI_PRES NEWDELHI_CI NEWDELHI_DP NEWDELHI_POCI REUNION_LAT REUNION_LON REUNION_TYPE REUNION_WIND REUNION_PRES REUNION_TNUM REUNION_CI REUNION_RMW REUNION_R34_NE REUNION_R34_SE REUNION_R34_SW REUNION_R34_NW REUNION_R50_NE REUNION_R50_SE REUNION_R50_SW REUNION_R50_NW REUNION_R64_NE REUNION_R64_SE REUNION_R64_SW REUNION_R64_NW BOM_LAT BOM_LON BOM_TYPE BOM_WIND BOM_PRES BOM_TNUM BOM_CI BOM_RMW BOM_R34_NE BOM_R34_SE BOM_R34_SW BOM_R34_NW BOM_R50_NE BOM_R50_SE BOM_R50_SW BOM_R50_NW BOM_R64_NE BOM_R64_SE BOM_R64_SW BOM_R64_NW BOM_ROCI BOM_POCI BOM_EYE BOM_POS_METHOD BOM_PRES_METHOD NADI_LAT NADI_LON NADI_CAT NADI_WIND NADI_PRES WELLINGTON_LAT WELLINGTON_LON WELLINGTON_WIND WELLINGTON_PRES DS824_LAT DS824_LON DS824_STAGE DS824_WIND DS824_PRES TD9636_LAT TD9636_LON TD9636_STAGE TD9636_WIND TD9636_PRES TD9635_LAT TD9635_LON TD9635_WIND TD9635_PRES TD9635_ROCI NEUMANN_LAT NEUMANN_LON NEUMANN_CLASS NEUMANN_WIND NEUMANN_PRES MLC_LAT MLC_LON MLC_CLASS MLC_WIND MLC_PRES USA_GUST BOM_GUST BOM_GUST_PER REUNION_GUST REUNION_GUST_PER USA_SEAHGT USA_SEARAD_NE USA_SEARAD_SE USA_SEARAD_SW USA_SEARAD_NW STORM_SPEED STORM_DIR
1916163N16114 1916 29 WP MM NOT_NAMED 1916-06-10 22:00:00 NR 16.3000 113.900 main 456 440 __________O___ -1 16.3000 113.900 2 4 337
1916163N16114 1916 29 WP MM NOT_NAMED 1916-06-11 00:00:00 NR 16.4312 113.846 main 440 427 __________P___ -1 16.4312 113.846 2 4 338
1916163N16114 1916 29 WP MM NOT_NAMED 1916-06-11 03:00:00 NR 16.6288 113.766 main 427 406 __________P___ -1 16.6288 113.766 2 4 339
1916163N16114 1916 29 WP MM NOT_NAMED 1916-06-11 06:00:00 NR 16.8284 113.690 main 406 384 __________P___ -1 16.8284 113.690 2 4 341
1916163N16114 1916 29 WP MM NOT_NAMED 1916-06-11 09:00:00 NR 17.0314 113.621 main 384 379 __________P___ -1 17.0314 113.621 2 4 342
1916163N16114 1916 29 WP MM NOT_NAMED 1916-06-11 10:00:00 NR 17.1000 113.600 main 379 373 __________O___ -1 17.1000 113.600 2 4 347
1916163N16114 1916 29 WP MM NOT_NAMED 1916-06-11 12:00:00 NR 17.2386 113.561 main 373 353 __________P___ -1 17.2386 113.561 2 4 345
1916163N16114 1916 29 WP MM NOT_NAMED 1916-06-11 15:00:00 NR 17.4465 113.509 main 353 343 __________P___ -1 17.4465 113.509 2 4 346
1916163N16114 1916 29 WP MM NOT_NAMED 1916-06-11 18:00:00 NR 17.6491 113.461 main 343 323 __________P___ -1 17.6491 113.461 2 4 347
1916163N16114 1916 29 WP MM NOT_NAMED 1916-06-11 21:00:00 NR 17.8400 113.415 main 323 316 __________P___ -1 17.8400 113.415 2 4 348
1916163N16114 1916 29 WP MM NOT_NAMED 1916-06-11 22:00:00 NR 17.9000 113.400 main 316 309 __________O___ -1 17.9000 113.400 2 4 350
1916163N16114 1916 29 WP MM NOT_NAMED 1916-06-12 00:00:00 NR 18.0140 113.372 main 309 288 __________P___ -1 18.0140 113.372 2 3 347
1916163N16114 1916 29 WP MM NOT_NAMED 1916-06-12 03:00:00 NR 18.1725 113.330 main 288 282 __________P___ -1 18.1725 113.330 2 3 344
1916163N16114 1916 29 WP MM NOT_NAMED 1916-06-12 06:00:00 NR 18.3187 113.282 main 282 261 __________P___ -1 18.3187 113.282 2 3 340
1916163N16114 1916 29 WP MM NOT_NAMED 1916-06-12 09:00:00 NR 18.4558 113.223 main 261 261 __________P___ -1 18.4558 113.223 2 3 336
1916163N16114 1916 29 WP MM NOT_NAMED 1916-06-12 10:00:00 NR 18.5000 113.200 main 261 247 __________O___ -1 18.5000 113.200 2 3 330
1916163N16114 1916 29 WP MM NOT_NAMED 1916-06-12 12:00:00 NR 18.5969 113.145 main 247 232 __________P___ -1 18.5969 113.145 2 3 329
1916163N16114 1916 29 WP MM NOT_NAMED 1916-06-12 15:00:00 NR 18.7362 113.049 main 232 214 __________P___ -1 18.7362 113.049 2 3 324
1916163N16114 1916 29 WP MM NOT_NAMED 1916-06-12 18:00:00 NR 18.8625 112.944 main 214 200 __________P___ -1 18.8625 112.944 2 3 319
1916163N16114 1916 29 WP MM NOT_NAMED 1916-06-12 21:00:00 NR 18.9696 112.836 main 200 200 __________P___ -1 18.9696 112.836 2 3 315
1916163N16114 1916 29 WP MM NOT_NAMED 1916-06-12 22:00:00 NR 19.0000 112.800 main 200 186 __________O___ -1 19.0000 112.800 2 3 311
1916163N16114 1916 29 WP MM NOT_NAMED 1916-06-13 00:00:00 NR 19.0557 112.736 main 186 176 __________P___ -1 19.0557 112.736 2 2 308
1916163N16114 1916 29 WP MM NOT_NAMED 1916-06-13 03:00:00 NR 19.1204 112.640 main 176 163 __________P___ -1 19.1204 112.640 2 2 300
1916163N16114 1916 29 WP MM NOT_NAMED 1916-06-13 06:00:00 NR 19.1654 112.541 main 163 153 __________P___ -1 19.1654 112.541 2 2 291
1916163N16114 1916 29 WP MM NOT_NAMED 1916-06-13 09:00:00 NR 19.1937 112.437 main 153 153 __________P___ -1 19.1937 112.437 2 2 285
1916163N16114 1916 29 WP MM NOT_NAMED 1916-06-13 10:00:00 NR 19.2000 112.400 main 153 143 __________O___ -1 19.2000 112.400 2 2 280
1916163N16114 1916 29 WP MM NOT_NAMED 1916-06-13 12:00:00 NR 19.2114 112.322 main 143 133 __________P___ -1 19.2114 112.322 2 2 275
1916163N16114 1916 29 WP MM NOT_NAMED 1916-06-13 15:00:00 NR 19.2159 112.200 main 133 123 __________P___ -1 19.2159 112.200 2 2 270
1916163N16114 1916 29 WP MM NOT_NAMED 1916-06-13 18:00:00 NR 19.2109 112.072 main 123 104 __________P___ -1 19.2109 112.072 2 2 267
1916163N16114 1916 29 WP MM NOT_NAMED 1916-06-13 21:00:00 NR 19.2025 111.943 main 104 104 __________P___ -1 19.2025 111.943 2 2 266
1916163N16114 1916 29 WP MM NOT_NAMED 1916-06-13 22:00:00 NR 19.2000 111.900 main 104 95 __________O___ -1 19.2000 111.900 2 2 269
1916163N16114 1916 29 WP MM NOT_NAMED 1916-06-14 00:00:00 NR 19.2000 111.817 main 95 85 __________P___ -1 19.2000 111.817 2 2 270
1916163N16114 1916 29 WP MM NOT_NAMED 1916-06-14 03:00:00 NR 19.2000 111.692 main 85 77 __________P___ -1 19.2000 111.692 2 2 270
1916163N16114 1916 29 WP MM NOT_NAMED 1916-06-14 06:00:00 NR 19.2000 111.567 main 77 61 __________P___ -1 19.2000 111.567 2 2 270
1916163N16114 1916 29 WP MM NOT_NAMED 1916-06-14 09:00:00 NR 19.2000 111.442 main 61 61 __________P___ -1 19.2000 111.442 2 2 270
1916163N16114 1916 29 WP MM NOT_NAMED 1916-06-14 10:00:00 NR 19.2000 111.400 main 61 53 __________O___ -1 19.2000 111.400 2 2 267
1916163N16114 1916 29 WP MM NOT_NAMED 1916-06-14 12:00:00 NR 19.1947 111.330 main 53 46 __________P___ -1 19.1947 111.330 2 2 265
1916163N16114 1916 29 WP MM NOT_NAMED 1916-06-14 15:00:00 NR 19.1865 111.225 main 46 39 __________P___ -1 19.1865 111.225 2 2 267
1916163N16114 1916 29 WP MM NOT_NAMED 1916-06-14 18:00:00 NR 19.1840 111.106 main 39 35 __________P___ -1 19.1840 111.106 2 3 272
1916163N16114 1916 29 WP MM NOT_NAMED 1916-06-14 21:00:00 NR 19.1932 110.958 main 35 30 __________P___ -1 19.1932 110.958 2 3 275
1916163N16114 1916 29 WP MM NOT_NAMED 1916-06-14 22:00:00 NR 19.2000 110.900 main 30 23 __________O___ -1 19.2000 110.900 2 4 279
1916163N16114 1916 29 WP MM NOT_NAMED 1916-06-15 00:00:00 NR 19.2220 110.759 main 23 0 __________P___ -1 19.2220 110.759 2 4 281
1916163N16114 1916 29 WP MM NOT_NAMED 1916-06-15 03:00:00 NR 19.2676 110.517 main 0 0 __________P___ -1 19.2676 110.517 2 5 282
1916163N16114 1916 29 WP MM NOT_NAMED 1916-06-15 06:00:00 NR 19.3226 110.253 main 0 0 __________P___ -1 19.3226 110.253 2 5 283
1916163N16114 1916 29 WP MM NOT_NAMED 1916-06-15 09:00:00 NR 19.3809 109.986 main 0 0 __________P___ -1 19.3809 109.986 2 5 283
1916163N16114 1916 29 WP MM NOT_NAMED 1916-06-15 10:00:00 NR 19.4000 109.900 main 0 0 __________O___ -1 19.4000 109.900 2 5 284
1916163N16114 1916 29 WP MM NOT_NAMED 1916-06-15 12:00:00 NR 19.4385 109.736 main 0 0 __________P___ -1 19.4385 109.736 2 5 284
1916163N16114 1916 29 WP MM NOT_NAMED 1916-06-15 15:00:00 NR 19.4965 109.497 main 0 0 __________P___ -1 19.4965 109.497 2 5 284
1916163N16114 1916 29 WP MM NOT_NAMED 1916-06-15 18:00:00 NR 19.5491 109.271 main 0 0 __________P___ -1 19.5491 109.271 2 4 283
1916163N16114 1916 29 WP MM NOT_NAMED 1916-06-15 21:00:00 NR 19.5900 109.064 main 0 0 __________P___ -1 19.5900 109.064 2 4 281
1916163N16114 1916 29 WP MM NOT_NAMED 1916-06-15 22:00:00 NR 19.6000 109.000 main 10 10 __________O___ -1 19.6000 109.000 2 3 277
1916163N16114 1916 29 WP MM NOT_NAMED 1916-06-16 00:00:00 NR 19.6113 108.891 main 11 11 __________P___ -1 19.6113 108.891 2 3 274
1916163N16114 1916 29 WP MM NOT_NAMED 1916-06-16 03:00:00 NR 19.6156 108.746 main 22 22 __________P___ -1 19.6156 108.746 2 3 270
1916163N16114 1916 29 WP MM NOT_NAMED 1916-06-16 06:00:00 NR 19.6106 108.607 main 24 24 __________P___ -1 19.6106 108.607 2 3 267
1916163N16114 1916 29 WP MM NOT_NAMED 1916-06-16 09:00:00 NR 19.6024 108.456 main 30 38 __________P___ -1 19.6024 108.456 2 3 267
1916163N16114 1916 29 WP MM NOT_NAMED 1916-06-16 10:00:00 NR 19.6000 108.400 main 38 38 __________O___ -1 19.6000 108.400 2 4 269
1916163N16114 1916 29 WP MM NOT_NAMED 1916-06-16 12:00:00 NR 19.6001 108.262 main 45 53 __________P___ -1 19.6001 108.262 2 4 270
1916163N16114 1916 29 WP MM NOT_NAMED 1916-06-16 15:00:00 NR 19.6001 108.036 main 71 71 __________P___ -1 19.6001 108.036 2 4 270
1916163N16114 1916 29 WP MM NOT_NAMED 1916-06-16 18:00:00 NR 19.6001 107.800 main 90 90 __________P___ -1 19.6001 107.800 2 4 270
1916163N16114 1916 29 WP MM NOT_NAMED 1916-06-16 21:00:00 NR 19.6000 107.572 main 110 110 __________P___ -1 19.6000 107.572 2 4 270
1916163N16114 1916 29 WP MM NOT_NAMED 1916-06-16 22:00:00 NR 19.6000 107.500 main 120 114 __________O___ -1 19.6000 107.500 2 4 270
1916163N16114 1916 29 WP MM NOT_NAMED 1916-06-17 00:00:00 NR 19.5999 107.367 main 114 99 __________P___ -1 19.5999 107.367 2 4 270
1916163N16114 1916 29 WP MM NOT_NAMED 1916-06-17 03:00:00 NR 19.5999 107.179 main 99 85 __________P___ -1 19.5999 107.179 2 3 270
1916163N16114 1916 29 WP MM NOT_NAMED 1916-06-17 06:00:00 NR 19.5999 107.007 main 85 74 __________P___ -1 19.5999 107.007 2 3 270
1916163N16114 1916 29 WP MM NOT_NAMED 1916-06-17 09:00:00 NR 19.6000 106.849 main 74 74 __________P___ -1 19.6000 106.849 2 3 270
1916163N16114 1916 29 WP MM NOT_NAMED 1916-06-17 10:00:00 NR 19.6000 106.800 main 74 68 __________O___ -1 19.6000 106.800 2 3 270
1916163N16114 1916 29 WP MM NOT_NAMED 1916-06-17 12:00:00 NR 19.6000 106.706 main 68 61 __________P___ -1 19.6000 106.706 2 3 270
1916163N16114 1916 29 WP MM NOT_NAMED 1916-06-17 15:00:00 NR 19.6001 106.576 main 61 54 __________P___ -1 19.6001 106.576 2 2 270
1916163N16114 1916 29 WP MM NOT_NAMED 1916-06-17 18:00:00 NR 19.6001 106.455 main 54 45 __________P___ -1 19.6001 106.455 2 2 270
1916163N16114 1916 29 WP MM NOT_NAMED 1916-06-17 21:00:00 NR 19.6000 106.338 main 45 45 __________P___ -1 19.6000 106.338 2 2 270
1916163N16114 1916 29 WP MM NOT_NAMED 1916-06-17 22:00:00 NR 19.6000 106.300 main 45 __________O___ -1 19.6000 106.300 2 2 270

Digital Typhoon Data and Search

About IBTrACS Database

This database is a web-friendly format of International Best Track Archive for Climate Stewardship (IBTrACS), a global best track data archive curated by NOAA dating back to 1842.

Updated: 2021-10-21